createdAt,value
2023-05-11T06:49:51.156Z,61.50
2023-05-11T06:53:05.894Z,61.26
2023-05-11T06:56:12.064Z,61.17
2023-05-11T06:59:01.783Z,61.34
2023-05-11T07:02:01.069Z,61.46
2023-05-11T07:04:55.112Z,61.08
2023-05-11T07:08:01.107Z,60.58
2023-05-11T07:10:50.988Z,60.83
2023-05-11T07:13:37.453Z,61.06
2023-05-11T07:16:26.941Z,61.06
2023-05-11T07:19:13.665Z,60.96
2023-05-11T07:21:59.646Z,60.82
2023-05-11T07:24:45.552Z,60.57
2023-05-11T07:27:31.698Z,60.44
2023-05-11T07:30:53.478Z,60.24
2023-05-11T07:33:54.126Z,60.46
2023-05-11T07:36:40.772Z,60.33
2023-05-11T07:39:56.409Z,59.36
2023-05-11T07:44:01.824Z,60.07
2023-05-11T07:46:58.960Z,59.97
2023-05-11T07:49:55.762Z,60.29
2023-05-11T07:52:53.367Z,59.99
2023-05-11T07:56:06.338Z,60.06
2023-05-11T07:59:10.133Z,60.16
2023-05-11T08:02:13.436Z,60.31
2023-05-11T08:05:13.482Z,60.33
2023-05-11T08:11:31.084Z,60.10
2023-05-11T08:14:38.675Z,60.05
2023-05-11T08:17:55.978Z,60.05
2023-05-11T08:21:26.990Z,59.77
2023-05-11T08:27:32.769Z,59.36
2023-05-11T08:30:37.278Z,59.33
2023-05-11T08:34:01.339Z,59.55
2023-05-11T08:37:38.562Z,58.32
2023-05-11T08:41:15.168Z,59.13
2023-05-11T08:52:50.822Z,58.38
2023-05-11T09:30:24.582Z,58.10
2023-05-11T11:51:58.370Z,58.10
2023-05-11T11:56:01.054Z,58.33
2023-05-11T11:59:21.768Z,58.25
2023-05-11T12:07:13.347Z,57.98
2023-05-11T12:10:18.217Z,58.13
2023-05-11T12:14:08.311Z,57.99
2023-05-11T12:17:29.921Z,58.13
2023-05-11T12:20:29.646Z,58.02
2023-05-11T12:23:16.358Z,58.07
2023-05-11T12:26:07.353Z,58.05
2023-05-11T12:29:09.292Z,57.71
2023-05-11T12:31:56.432Z,58.13
2023-05-11T12:34:42.848Z,57.99
2023-05-11T12:37:32.518Z,58.14
2023-05-11T12:40:21.650Z,58.14
2023-05-11T12:43:08.071Z,57.78
2023-05-11T12:45:54.274Z,57.93
2023-05-11T12:48:40.780Z,58.19
2023-05-11T12:52:06.206Z,58.09
2023-05-11T12:54:53.920Z,58.21
2023-05-11T12:57:41.082Z,58.08
2023-05-11T13:00:27.365Z,58.13
2023-05-11T13:03:13.846Z,58.13
2023-05-11T13:06:09.577Z,58.31
2023-05-11T13:08:55.969Z,58.32
2023-05-11T13:11:42.812Z,58.25
2023-05-11T13:14:31.507Z,58.10
2023-05-11T13:18:01.130Z,58.42
2023-05-11T13:20:47.900Z,58.33
2023-05-11T13:23:37.316Z,58.33
2023-05-11T13:26:39.277Z,58.29
2023-05-11T13:33:03.971Z,58.28
2023-05-11T13:36:13.826Z,58.35
2023-05-11T13:39:29.322Z,58.32
2023-05-11T13:42:24.436Z,58.42
2023-05-11T13:45:38.412Z,58.38
2023-05-11T13:48:25.479Z,58.35
2023-05-11T13:52:04.607Z,59.01
2023-05-11T20:41:39.623Z,57.83
2023-05-11T21:13:26.896Z,57.93
2023-05-11T21:17:15.979Z,57.95
2023-05-11T21:20:21.683Z,57.97
2023-05-11T21:23:14.580Z,57.92
2023-05-11T21:26:04.351Z,57.92
2023-05-11T21:29:13.687Z,57.84
2023-05-11T21:36:31.564Z,57.93
